Time;durP1;ratioP1;P1;durP2;ratioP2;P2;SDS_P1;SDS_P2;PMS_P1;PMS_P2;Temp;Humidity;BMP_temperature;BMP_pressure;BME280_temperature;BME280_humidity;BME280_pressure;Samples;Min_cycle;Max_cycle;Signal;HPM_P1;HPM_P2
2023/08/28 00:00:05;;;;;;;11.90;7.25;;;;;;;-144.73;100.00;54539.06;5010043;28;20083;-76
2023/08/28 00:02:30;;;;;;;9.95;6.65;;;;;;;-144.73;100.00;54551.38;5003555;28;20037;-76
2023/08/28 00:04:56;;;;;;;14.95;6.57;;;;;;;-144.73;100.00;54547.28;4993705;28;20033;-76
2023/08/28 00:07:25;;;;;;;14.60;6.45;;;;;;;-144.73;100.00;54576.00;5025875;28;20022;-76
2023/08/28 00:09:51;;;;;;;9.65;6.13;;;;;;;-144.73;100.00;54518.53;4998763;28;20528;-76
2023/08/28 00:12:16;;;;;;;12.20;6.63;;;;;;;-144.73;100.00;54502.13;4994355;28;20037;-76
2023/08/28 00:14:42;;;;;;;11.15;7.10;;;;;;;-144.73;100.00;54555.47;4995543;28;20054;-75
2023/08/28 00:17:07;;;;;;;8.85;7.07;;;;;;;-144.73;100.00;54522.63;4997130;28;20436;-76
2023/08/28 00:19:33;;;;;;;13.02;5.97;;;;;;;-144.73;100.00;54498.00;5001110;28;20030;-75
2023/08/28 00:21:59;;;;;;;14.63;6.93;;;;;;;-144.73;100.00;54530.84;4994733;28;20068;-76
2023/08/28 00:24:24;;;;;;;17.38;7.25;;;;;;;-144.73;100.00;54543.16;4994112;28;20061;-76
2023/08/28 00:26:49;;;;;;;9.75;7.47;;;;;;;-144.73;100.00;54543.16;4994049;28;20048;-76
2023/08/28 00:29:15;;;;;;;14.38;6.80;;;;;;;-144.73;100.00;54539.06;4993180;28;20030;-75
2023/08/28 00:31:40;;;;;;;13.30;6.55;;;;;;;-144.73;100.00;54604.75;5013788;28;20547;-76
2023/08/28 00:34:06;;;;;;;10.02;6.13;;;;;;;-144.73;100.00;54539.06;4993949;28;20026;-75
2023/08/28 00:36:31;;;;;;;9.90;5.82;;;;;;;-144.73;100.00;54547.28;4993527;28;20036;-76
2023/08/28 00:38:57;;;;;;;12.38;6.13;;;;;;;-144.73;100.00;54526.75;5008943;28;20462;-76
2023/08/28 00:41:25;;;;;;;10.57;5.70;;;;;;;-144.73;100.00;54553.44;4994647;28;20148;-76
2023/08/28 00:43:50;;;;;;;7.97;6.65;;;;;;;-144.73;100.00;54514.44;5024551;28;20064;-76
2023/08/28 00:46:16;;;;;;;11.75;5.68;;;;;;;-144.73;100.00;54524.69;4998155;28;20065;-76
2023/08/28 00:48:41;;;;;;;13.65;6.10;;;;;;;-144.73;100.00;54502.13;4999918;28;20049;-76
2023/08/28 00:51:07;;;;;;;14.32;5.57;;;;;;;-144.73;100.00;54530.84;4996331;28;20361;-76
2023/08/28 00:53:36;;;;;;;12.27;5.55;;;;;;;-144.73;100.00;54512.38;5022037;28;20025;-76
2023/08/28 00:56:02;;;;;;;14.93;5.70;;;;;;;-144.73;100.00;54518.53;5003646;28;20026;-76
2023/08/28 00:58:27;;;;;;;14.38;6.30;;;;;;;-144.73;100.00;54547.28;5016777;28;20032;-76
2023/08/28 01:00:53;;;;;;;11.95;5.45;;;;;;;-144.73;100.00;54539.06;5013331;28;20033;-76
2023/08/28 01:03:21;;;;;;;11.70;5.85;;;;;;;-144.73;100.00;54539.06;5016839;28;20025;-76
2023/08/28 01:06:00;;;;;;;15.40;6.50;;;;;;;-144.73;100.00;54543.16;4999516;28;20045;-76
2023/08/28 01:08:44;;;;;;;8.18;5.50;;;;;;;-144.73;100.00;54547.28;5017823;28;20026;-76
2023/08/28 01:11:30;;;;;;;8.13;5.73;;;;;;;-144.73;100.00;54539.06;5015700;28;20163;-76
2023/08/28 01:14:18;;;;;;;9.82;6.47;;;;;;;-144.73;100.00;54498.00;5025126;28;20271;-75
2023/08/28 01:16:45;;;;;;;11.77;5.88;;;;;;;-144.73;100.00;54539.06;5001799;28;20041;-75
2023/08/28 01:19:32;;;;;;;8.55;6.30;;;;;;;-144.73;100.00;54576.00;5010700;28;20029;-75
2023/08/28 01:22:13;;;;;;;15.85;7.93;;;;;;;-144.73;100.00;54493.91;4997725;28;20041;-75
2023/08/28 01:24:45;;;;;;;12.20;6.82;;;;;;;-144.73;100.00;54506.22;5003719;28;20037;-75
2023/08/28 01:27:12;;;;;;;12.00;6.13;;;;;;;-144.73;100.00;54510.31;5019571;28;20052;-75
2023/08/28 01:29:38;;;;;;;15.45;6.30;;;;;;;-144.73;100.00;54547.28;5012059;28;20520;-75
2023/08/28 01:32:05;;;;;;;11.02;6.13;;;;;;;-144.73;100.00;54539.06;5022196;28;20049;-75
2023/08/28 01:34:30;;;;;;;11.70;5.85;;;;;;;-144.73;100.00;54539.06;5006072;28;20088;-75
2023/08/28 01:37:00;;;;;;;11.45;6.57;;;;;;;-144.73;100.00;54563.69;5017213;28;20029;-74
2023/08/28 01:39:42;;;;;;;16.60;6.38;;;;;;;-144.73;100.00;54518.53;5026228;28;20536;-77
2023/08/28 01:42:09;;;;;;;10.70;6.10;;;;;;;-144.73;100.00;54563.69;5025440;28;20034;-75
2023/08/28 01:44:36;;;;;;;15.13;5.93;;;;;;;-144.73;100.00;54506.22;5024722;28;20034;-75
2023/08/28 01:47:03;;;;;;;13.10;5.97;;;;;;;-144.73;100.00;54543.16;5021637;28;20112;-76
2023/08/28 01:49:29;;;;;;;14.18;6.70;;;;;;;-144.73;100.00;54604.75;5004589;28;20029;-76
2023/08/28 01:51:55;;;;;;;14.57;6.68;;;;;;;-144.73;100.00;54495.97;4999799;28;20022;-75
2023/08/28 01:54:21;;;;;;;12.18;6.13;;;;;;;-144.73;100.00;54530.84;5016602;28;20037;-76
2023/08/28 01:56:47;;;;;;;11.20;6.00;;;;;;;-144.73;100.00;54530.84;5000025;28;20018;-76
2023/08/28 01:59:12;;;;;;;21.73;7.30;;;;;;;-144.73;100.00;54522.63;4999670;28;20022;-75
2023/08/28 02:01:37;;;;;;;14.30;6.18;;;;;;;-144.73;100.00;54528.81;5002899;28;20017;-75
2023/08/28 02:04:03;;;;;;;20.10;6.90;;;;;;;-144.73;100.00;54539.06;5016551;28;20363;-76
2023/08/28 02:06:28;;;;;;;8.85;6.00;;;;;;;-144.73;100.00;54539.06;5003894;28;20030;-76
2023/08/28 02:08:54;;;;;;;14.30;6.93;;;;;;;-144.73;100.00;54571.91;5012856;28;20491;-76
2023/08/28 02:11:19;;;;;;;15.15;6.93;;;;;;;-144.73;100.00;54555.47;5016566;28;20531;-75
2023/08/28 02:13:44;;;;;;;18.30;7.45;;;;;;;-144.73;100.00;54510.31;5007992;28;20040;-76
2023/08/28 02:16:10;;;;;;;16.05;7.28;;;;;;;-144.73;100.00;54526.75;5002728;28;20042;-75
2023/08/28 02:18:35;;;;;;;12.32;7.32;;;;;;;-144.73;100.00;54543.16;5005617;28;20049;-76
2023/08/28 02:21:00;;;;;;;16.50;8.65;;;;;;;-144.73;100.00;54584.22;5001152;28;20397;-75
2023/08/28 02:23:26;;;;;;;13.43;7.68;;;;;;;-144.73;100.00;54555.47;5029455;28;20028;-75
2023/08/28 02:25:51;;;;;;;14.80;8.20;;;;;;;-144.73;100.00;54559.59;5026672;28;20036;-76
2023/08/28 02:28:18;;;;;;;12.55;8.27;;;;;;;-144.73;100.00;54493.91;5018535;28;20030;-77
2023/08/28 02:30:45;;;;;;;14.27;8.32;;;;;;;-144.73;100.00;54553.44;5022945;28;20080;-76
2023/08/28 02:33:11;;;;;;;12.25;8.30;;;;;;;-144.73;100.00;54555.47;5008882;28;20104;-76
2023/08/28 02:35:36;;;;;;;14.88;7.10;;;;;;;-144.73;100.00;54567.81;5004083;28;20124;-75
2023/08/28 02:38:02;;;;;;;16.15;8.05;;;;;;;-144.73;100.00;54543.16;5014162;28;20024;-75
2023/08/28 02:40:27;;;;;;;17.40;8.77;;;;;;;-144.73;100.00;54557.53;5007023;28;20053;-75
2023/08/28 02:42:53;;;;;;;16.38;9.02;;;;;;;-144.73;100.00;54522.63;5011927;28;20017;-75
2023/08/28 02:45:18;;;;;;;14.27;8.63;;;;;;;-144.73;100.00;54522.63;5000870;28;20034;-77
2023/08/28 02:47:44;;;;;;;13.15;8.55;;;;;;;-144.73;100.00;54530.84;4999230;28;20041;-76
2023/08/28 02:50:13;;;;;;;17.00;8.35;;;;;;;-144.73;100.00;54539.06;5001372;28;20045;-75
2023/08/28 02:52:39;;;;;;;13.57;7.90;;;;;;;-144.73;100.00;54539.06;5008596;28;20037;-76
2023/08/28 02:55:05;;;;;;;14.90;8.25;;;;;;;-144.73;100.00;54604.75;5003079;28;20037;-76
2023/08/28 02:57:31;;;;;;;9.93;6.88;;;;;;;-144.73;100.00;54555.47;4996319;28;20045;-76
2023/08/28 02:59:56;;;;;;;15.00;7.60;;;;;;;-144.73;100.00;54530.84;4999263;28;20055;-76
2023/08/28 03:02:21;;;;;;;13.27;8.10;;;;;;;-144.73;100.00;54543.16;5002809;28;20136;-76
2023/08/28 03:04:47;;;;;;;12.60;6.97;;;;;;;-144.73;100.00;54526.75;4996002;28;20026;-76
2023/08/28 03:07:12;;;;;;;15.38;7.18;;;;;;;-144.73;100.00;54543.16;5000996;28;20112;-76
2023/08/28 03:09:37;;;;;;;11.07;7.35;;;;;;;-144.73;100.00;54506.22;5007718;28;20311;-75
2023/08/28 03:12:03;;;;;;;14.98;7.28;;;;;;;-144.73;100.00;54547.28;5010928;28;20381;-76
2023/08/28 03:14:29;;;;;;;13.63;6.45;;;;;;;-144.73;100.00;54551.38;4984374;28;20078;-76
2023/08/28 03:16:54;;;;;;;16.75;7.03;;;;;;;-144.73;100.00;54539.06;4994140;28;20018;-77
2023/08/28 03:19:19;;;;;;;14.27;7.00;;;;;;;-144.73;100.00;54547.28;4992017;28;20393;-76
2023/08/28 03:21:45;;;;;;;10.30;6.57;;;;;;;-144.73;100.00;54555.47;4993967;28;20041;-76
2023/08/28 03:24:10;;;;;;;10.65;6.57;;;;;;;-144.73;100.00;54539.06;4995559;28;20033;-76
2023/08/28 03:26:36;;;;;;;13.30;7.35;;;;;;;-144.73;100.00;54547.28;4996857;28;20053;-76
2023/08/28 03:29:01;;;;;;;15.68;7.50;;;;;;;-144.73;100.00;54514.44;5007000;28;20058;-76
2023/08/28 03:31:27;;;;;;;18.63;7.40;;;;;;;-144.73;100.00;54530.84;4997945;28;20086;-76
2023/08/28 03:33:52;;;;;;;17.17;8.07;;;;;;;-144.73;100.00;54514.44;5010810;28;20040;-76
2023/08/28 03:36:18;;;;;;;10.85;7.30;;;;;;;-144.73;100.00;54571.91;5009667;28;20057;-76
2023/08/28 03:38:43;;;;;;;9.60;7.20;;;;;;;-144.73;100.00;54543.16;5006120;28;20098;-76
2023/08/28 03:41:09;;;;;;;11.95;6.82;;;;;;;-144.73;100.00;54522.63;5013430;28;20080;-76
2023/08/28 03:43:34;;;;;;;17.88;6.95;;;;;;;-144.73;100.00;54514.44;5007869;28;20021;-76
2023/08/28 03:46:00;;;;;;;13.88;5.88;;;;;;;-144.73;100.00;54543.16;5007613;28;20057;-76
2023/08/28 03:48:25;;;;;;;12.77;6.68;;;;;;;-144.73;100.00;54539.06;5006804;28;20018;-76
2023/08/28 03:50:51;;;;;;;16.38;6.28;;;;;;;-144.73;100.00;54543.16;4996186;28;20061;-76
2023/08/28 03:53:16;;;;;;;13.63;6.47;;;;;;;-144.73;100.00;54553.44;5004696;28;20026;-76
2023/08/28 03:55:42;;;;;;;8.00;5.45;;;;;;;-144.73;100.00;54539.06;5005757;28;20500;-76
2023/08/28 03:58:07;;;;;;;12.52;6.35;;;;;;;-144.73;100.00;54522.63;5000424;28;20025;-76
2023/08/28 04:00:33;;;;;;;11.35;6.13;;;;;;;-144.73;100.00;54518.53;4996043;28;20041;-76
2023/08/28 04:02:58;;;;;;;12.70;6.10;;;;;;;-144.73;100.00;54512.38;5010510;28;20021;-76
2023/08/28 04:05:24;;;;;;;8.10;5.53;;;;;;;-144.73;100.00;54528.81;5006004;28;20184;-76
2023/08/28 04:07:55;;;;;;;11.15;6.60;;;;;;;-144.73;100.00;54545.22;5006153;28;20029;-76
2023/08/28 04:10:21;;;;;;;16.98;7.75;;;;;;;-144.73;100.00;54543.16;4998569;28;20049;-75
2023/08/28 04:12:46;;;;;;;12.18;7.50;;;;;;;-144.73;100.00;54576.00;5005859;28;20025;-75
2023/08/28 04:15:11;;;;;;;14.52;7.60;;;;;;;-144.73;100.00;54551.38;5019343;28;20041;-76
2023/08/28 04:17:37;;;;;;;13.77;7.90;;;;;;;-144.73;100.00;54567.81;4999555;28;20022;-75
2023/08/28 04:20:14;;;;;;;17.23;9.20;;;;;;;-144.73;100.00;54539.06;4997443;28;20034;-75
2023/08/28 04:22:43;;;;;;;16.95;10.52;;;;;;;-144.73;100.00;54567.81;4994549;28;20111;-76
2023/08/28 04:25:09;;;;;;;12.52;9.43;;;;;;;-144.73;100.00;54539.06;5010884;28;20050;-76
2023/08/28 04:27:35;;;;;;;19.70;9.98;;;;;;;-144.73;100.00;54500.06;5011219;28;20018;-76
2023/08/28 04:30:00;;;;;;;20.48;10.63;;;;;;;-144.73;100.00;54518.53;5001940;28;20374;-76
2023/08/28 04:32:28;;;;;;;11.85;10.48;;;;;;;-144.73;100.00;54543.16;4999023;28;20126;-76
2023/08/28 04:34:56;;;;;;;16.77;10.07;;;;;;;-144.73;100.00;54547.28;4995703;28;20057;-76
2023/08/28 04:37:23;;;;;;;18.80;10.10;;;;;;;-144.73;100.00;54547.28;4997970;28;20428;-76
2023/08/28 04:39:48;;;;;;;14.60;10.45;;;;;;;-144.73;100.00;54502.13;4999104;28;20059;-77
2023/08/28 04:42:14;;;;;;;16.73;9.95;;;;;;;-144.73;100.00;54555.47;5011079;28;20424;-76
2023/08/28 04:44:40;;;;;;;19.00;11.13;;;;;;;-144.73;100.00;54567.81;4993626;28;20037;-75
2023/08/28 04:47:05;;;;;;;18.17;10.88;;;;;;;-144.73;100.00;54539.06;4999656;28;20037;-76
2023/08/28 04:49:30;;;;;;;18.42;12.35;;;;;;;-144.73;100.00;54539.06;4998310;28;20036;-76
2023/08/28 04:51:56;;;;;;;21.85;12.35;;;;;;;-144.73;100.00;54539.06;4999400;28;20053;-76
2023/08/28 04:54:21;;;;;;;22.55;13.45;;;;;;;-144.73;100.00;54514.44;5005402;28;20112;-76
2023/08/28 04:56:47;;;;;;;19.40;13.73;;;;;;;-144.73;100.00;54518.53;4998588;28;20033;-76
2023/08/28 04:59:12;;;;;;;17.08;13.57;;;;;;;-144.73;100.00;54555.47;4998406;28;20507;-75
2023/08/28 05:01:38;;;;;;;23.40;12.82;;;;;;;-144.73;100.00;54590.38;5002973;28;20018;-76
2023/08/28 05:04:04;;;;;;;22.08;12.82;;;;;;;-144.73;100.00;54508.28;5001147;28;20100;-77
2023/08/28 05:06:30;;;;;;;21.50;11.68;;;;;;;-144.73;100.00;54592.44;4997289;28;20172;-76
2023/08/28 05:08:55;;;;;;;17.48;10.32;;;;;;;-144.73;100.00;54504.16;5003519;28;20105;-76
2023/08/28 05:11:21;;;;;;;26.92;12.35;;;;;;;-144.73;100.00;54604.75;5004548;28;20053;-76
2023/08/28 05:13:46;;;;;;;21.30;12.52;;;;;;;-144.73;100.00;54522.63;5022343;28;20500;-76
2023/08/28 05:16:12;;;;;;;27.17;13.45;;;;;;;-144.73;100.00;54576.00;5015486;28;20045;-76
2023/08/28 05:18:38;;;;;;;21.58;13.55;;;;;;;-144.73;100.00;54539.06;5013534;28;20033;-75
2023/08/28 05:21:03;;;;;;;23.23;13.30;;;;;;;-144.73;100.00;54551.38;5000925;28;20026;-76
2023/08/28 05:23:32;;;;;;;19.77;14.23;;;;;;;-144.73;100.00;54555.47;5013336;28;20064;-76
2023/08/28 05:25:57;;;;;;;25.52;14.57;;;;;;;-144.73;100.00;54563.69;5000890;28;20037;-76
2023/08/28 05:28:23;;;;;;;17.65;13.93;;;;;;;-144.73;100.00;54567.81;5001045;28;20025;-75
2023/08/28 05:30:50;;;;;;;24.67;16.00;;;;;;;-144.73;100.00;54580.13;5005188;28;20057;-77
2023/08/28 05:33:16;;;;;;;22.10;15.73;;;;;;;-144.73;100.00;54576.00;5009424;28;20079;-76
2023/08/28 05:35:42;;;;;;;25.80;15.63;;;;;;;-144.73;100.00;54580.13;5018023;28;20064;-76
2023/08/28 05:38:08;;;;;;;22.30;14.65;;;;;;;-144.73;100.00;54551.38;4997719;28;20010;-76
2023/08/28 05:40:33;;;;;;;24.20;13.55;;;;;;;-144.73;100.00;54510.31;5000840;28;20088;-76
2023/08/28 05:42:59;;;;;;;19.42;13.65;;;;;;;-144.73;100.00;54543.16;5000550;28;20029;-76
2023/08/28 05:45:24;;;;;;;22.27;14.32;;;;;;;-144.73;100.00;54506.22;5019736;28;20071;-76
2023/08/28 05:47:53;;;;;;;21.70;13.55;;;;;;;-144.73;100.00;54563.69;5010720;28;20018;-76
2023/08/28 05:50:19;;;;;;;20.13;12.98;;;;;;;-144.73;100.00;54555.47;5010452;28;20061;-76
2023/08/28 05:52:45;;;;;;;24.30;13.15;;;;;;;-144.73;100.00;54555.47;5009850;28;20068;-76
2023/08/28 05:55:11;;;;;;;23.58;11.45;;;;;;;-144.73;100.00;54514.44;4999728;28;20054;-77
2023/08/28 05:57:36;;;;;;;19.58;11.82;;;;;;;-144.73;100.00;54555.47;5002916;28;20026;-77
2023/08/28 06:00:04;;;;;;;20.52;10.93;;;;;;;-144.73;100.00;54514.44;5003181;28;20025;-77
2023/08/28 06:02:29;;;;;;;22.52;11.07;;;;;;;-144.73;100.00;54559.59;5003814;28;20060;-77
2023/08/28 06:04:55;;;;;;;16.92;10.30;;;;;;;-144.73;100.00;54551.38;5004045;28;20069;-77
2023/08/28 06:07:21;;;;;;;19.80;9.15;;;;;;;-144.73;100.00;54498.00;4999463;28;20061;-77
2023/08/28 06:09:46;;;;;;;20.17;9.57;;;;;;;-144.73;100.00;54571.91;5004061;28;20057;-77
2023/08/28 06:12:12;;;;;;;14.50;8.98;;;;;;;-144.73;100.00;54576.00;4995783;28;20064;-76
2023/08/28 06:14:37;;;;;;;19.63;9.10;;;;;;;-144.73;100.00;54571.91;4995141;28;20050;-77
2023/08/28 06:17:05;;;;;;;21.13;8.48;;;;;;;-144.73;100.00;54567.81;4995877;28;20032;-75
2023/08/28 06:19:31;;;;;;;16.88;7.82;;;;;;;-144.73;100.00;54547.28;4995154;28;20057;-76
2023/08/28 06:21:56;;;;;;;11.93;7.53;;;;;;;-144.73;100.00;54569.84;4998794;28;20084;-76
2023/08/28 06:24:21;;;;;;;11.85;6.55;;;;;;;-144.73;100.00;54571.91;5014643;28;20018;-76
2023/08/28 06:26:47;;;;;;;19.67;6.90;;;;;;;-144.73;100.00;54580.13;5003712;28;20075;-76
2023/08/28 06:29:12;;;;;;;12.45;6.68;;;;;;;-144.73;100.00;54539.06;5003581;28;20030;-77
2023/08/28 06:31:38;;;;;;;17.75;5.90;;;;;;;-144.73;100.00;54555.47;5008115;28;20030;-76
2023/08/28 06:34:04;;;;;;;9.95;5.63;;;;;;;-144.73;100.00;54559.59;5003536;28;20036;-77
2023/08/28 06:36:30;;;;;;;9.27;4.85;;;;;;;-144.73;100.00;54539.06;5009975;28;20107;-73
2023/08/28 06:38:56;;;;;;;10.68;4.50;;;;;;;-144.73;100.00;54551.38;5010055;28;20022;-72
2023/08/28 06:41:21;;;;;;;12.02;5.13;;;;;;;-144.73;100.00;54567.81;5003643;28;20033;-72
2023/08/28 06:43:47;;;;;;;8.15;4.22;;;;;;;-144.73;100.00;54541.13;4995748;28;20022;-72
2023/08/28 06:46:12;;;;;;;16.60;4.03;;;;;;;-144.73;100.00;54539.06;4995759;28;20049;-72
2023/08/28 06:48:38;;;;;;;9.52;3.13;;;;;;;-144.73;100.00;54498.00;5001077;28;20030;-72
2023/08/28 06:51:03;;;;;;;7.53;3.22;;;;;;;-144.73;100.00;54576.00;4994424;28;20080;-71
2023/08/28 06:53:29;;;;;;;5.97;2.72;;;;;;;-144.73;100.00;54563.69;4997809;28;20030;-73
2023/08/28 06:55:54;;;;;;;11.32;2.60;;;;;;;-144.73;100.00;54526.75;4995439;28;20045;-72
2023/08/28 06:58:19;;;;;;;12.35;3.17;;;;;;;-144.73;100.00;54543.16;4996116;28;20065;-71
2023/08/28 07:00:45;;;;;;;15.38;2.67;;;;;;;-144.73;100.00;54539.06;4997232;28;20045;-74
2023/08/28 07:03:10;;;;;;;15.13;3.22;;;;;;;-144.73;100.00;54506.22;5010354;28;20091;-72
2023/08/28 07:05:36;;;;;;;14.98;3.33;;;;;;;-144.73;100.00;54539.06;5007479;28;20033;-72
2023/08/28 07:08:01;;;;;;;9.63;2.90;;;;;;;-144.73;100.00;54576.00;5003421;28;20022;-72
2023/08/28 07:10:27;;;;;;;6.20;3.28;;;;;;;-144.73;100.00;54555.47;4999863;28;20037;-73
2023/08/28 07:12:52;;;;;;;8.07;2.60;;;;;;;-144.73;100.00;54555.47;5000072;28;20026;-72
2023/08/28 07:15:17;;;;;;;8.13;2.72;;;;;;;-144.73;100.00;54530.84;4997723;28;20037;-72
2023/08/28 07:17:43;;;;;;;9.95;2.80;;;;;;;-144.73;100.00;54543.16;5012080;28;21187;-73
2023/08/28 07:20:09;;;;;;;6.57;2.28;;;;;;;-144.73;100.00;54539.06;5004998;28;20030;-73
2023/08/28 07:22:34;;;;;;;12.63;2.55;;;;;;;-144.73;100.00;54530.84;4997494;28;20119;-74
2023/08/28 07:25:00;;;;;;;8.40;2.47;;;;;;;-144.73;100.00;54514.44;5001194;28;20084;-73
2023/08/28 07:27:25;;;;;;;8.23;2.55;;;;;;;-144.73;100.00;54543.16;4997374;28;20030;-73
2023/08/28 07:29:51;;;;;;;7.05;2.88;;;;;;;-144.73;100.00;54547.28;5011018;28;20038;-73
2023/08/28 07:32:16;;;;;;;15.23;3.15;;;;;;;-144.73;100.00;54514.44;4995666;28;20029;-73
2023/08/28 07:34:41;;;;;;;13.48;2.53;;;;;;;-144.73;100.00;54539.06;5012362;28;20029;-74
2023/08/28 07:37:07;;;;;;;9.88;2.53;;;;;;;-144.73;100.00;54510.31;5011876;28;20029;-74
2023/08/28 07:39:32;;;;;;;8.82;2.45;;;;;;;-144.73;100.00;54510.31;4993708;28;20034;-74
2023/08/28 07:41:58;;;;;;;10.60;2.78;;;;;;;-144.73;100.00;54522.63;5003781;28;20038;-74
2023/08/28 07:44:23;;;;;;;10.05;2.00;;;;;;;-144.73;100.00;54539.06;5004454;28;20036;-74
2023/08/28 07:46:49;;;;;;;9.52;2.33;;;;;;;-144.73;100.00;54539.06;4999926;28;20034;-74
2023/08/28 07:49:14;;;;;;;6.07;2.58;;;;;;;-144.73;100.00;54510.31;5006579;28;20072;-74
2023/08/28 07:51:39;;;;;;;12.18;2.30;;;;;;;-144.73;100.00;54516.47;4993416;28;20025;-74
2023/08/28 07:54:05;;;;;;;8.00;1.80;;;;;;;-144.73;100.00;54485.69;4991790;28;20068;-75
2023/08/28 07:56:30;;;;;;;7.22;2.30;;;;;;;-144.73;100.00;54547.28;4996253;28;20040;-74
2023/08/28 07:58:56;;;;;;;7.28;1.92;;;;;;;-144.73;100.00;54522.63;5018671;28;20024;-74
2023/08/28 08:01:21;;;;;;;9.88;2.00;;;;;;;-144.73;100.00;54526.75;5009567;28;20029;-74
2023/08/28 08:03:47;;;;;;;8.60;2.33;;;;;;;-144.73;100.00;54530.84;5002326;28;20029;-74
2023/08/28 08:06:13;;;;;;;4.97;1.55;;;;;;;-144.73;100.00;54514.44;5022188;28;20026;-74
2023/08/28 08:08:38;;;;;;;12.82;1.98;;;;;;;-144.73;100.00;54502.13;5001384;28;20026;-74
2023/08/28 08:11:03;;;;;;;7.93;2.22;;;;;;;-144.73;100.00;54551.38;5003695;28;20026;-74
2023/08/28 08:13:29;;;;;;;11.18;3.00;;;;;;;-144.73;100.00;54514.44;4997713;28;20109;-74
2023/08/28 08:15:54;;;;;;;14.13;2.78;;;;;;;-144.73;100.00;54543.16;5000182;28;20061;-74
2023/08/28 08:18:19;;;;;;;6.35;1.73;;;;;;;-144.73;100.00;54528.81;4995344;28;20028;-74
2023/08/28 08:20:45;;;;;;;11.90;2.45;;;;;;;-144.73;100.00;54514.44;5001890;28;20030;-74
2023/08/28 08:23:10;;;;;;;10.35;2.28;;;;;;;-144.73;100.00;54551.38;5018748;28;20040;-74
2023/08/28 08:25:36;;;;;;;13.60;3.00;;;;;;;-144.73;100.00;54530.84;4993516;28;20030;-74
2023/08/28 08:28:04;;;;;;;5.30;2.05;;;;;;;-144.73;100.00;54491.84;4999977;28;20026;-74
2023/08/28 08:30:30;;;;;;;10.02;2.45;;;;;;;-144.73;100.00;54498.00;5002732;28;20025;-74
2023/08/28 08:32:55;;;;;;;6.78;2.13;;;;;;;-144.73;100.00;54522.63;5000132;28;20089;-74
2023/08/28 08:35:21;;;;;;;8.40;2.03;;;;;;;-144.73;100.00;54522.63;4999649;28;20104;-74
2023/08/28 08:37:47;;;;;;;6.93;1.67;;;;;;;-144.73;100.00;54506.22;5001725;28;20013;-74
2023/08/28 08:40:14;;;;;;;7.15;2.10;;;;;;;-144.73;100.00;54604.75;4999000;28;20120;-74
2023/08/28 08:42:40;;;;;;;10.00;2.55;;;;;;;-144.73;100.00;54539.06;4994545;28;20014;-74
2023/08/28 08:45:06;;;;;;;9.27;1.85;;;;;;;-144.73;100.00;54539.06;4992273;28;20036;-73
2023/08/28 08:47:33;;;;;;;9.70;1.95;;;;;;;-144.73;100.00;54604.75;4996163;28;20029;-74
2023/08/28 08:50:02;;;;;;;19.65;2.15;;;;;;;-144.73;100.00;54547.28;4994220;28;20034;-74
2023/08/28 08:52:28;;;;;;;7.53;1.67;;;;;;;-144.73;100.00;54510.31;4995522;28;20021;-74
2023/08/28 08:54:58;;;;;;;9.02;1.48;;;;;;;-144.73;100.00;54539.06;4994998;28;20500;-74
2023/08/28 08:57:37;;;;;;;8.07;1.63;;;;;;;-144.73;100.00;54502.13;5009495;28;20025;-74
2023/08/28 09:00:11;;;;;;;9.05;2.13;;;;;;;-144.73;100.00;54477.47;5012660;28;20041;-74
2023/08/28 09:02:38;;;;;;;7.50;1.40;;;;;;;-144.73;100.00;54465.16;4996419;28;20014;-74
2023/08/28 09:05:05;;;;;;;8.20;1.90;;;;;;;-144.73;100.00;54493.91;5021294;28;20030;-74
2023/08/28 09:07:32;;;;;;;9.65;1.65;;;;;;;-144.73;100.00;54481.59;5001331;28;20492;-74
2023/08/28 09:09:57;;;;;;;6.80;1.52;;;;;;;-144.73;100.00;54498.00;4995854;28;20030;-74
2023/08/28 09:12:22;;;;;;;6.97;1.63;;;;;;;-144.73;100.00;54526.75;5001153;28;20026;-74
2023/08/28 09:14:48;;;;;;;7.15;1.63;;;;;;;-144.73;100.00;54514.44;4999951;28;20021;-73
2023/08/28 09:17:13;;;;;;;5.15;1.20;;;;;;;-144.73;100.00;54506.22;5007430;28;20041;-73
2023/08/28 09:19:38;;;;;;;4.68;1.48;;;;;;;-144.73;100.00;54489.81;5022291;28;20036;-74
2023/08/28 09:22:04;;;;;;;5.40;1.50;;;;;;;-144.73;100.00;54502.13;5001781;28;20111;-74
2023/08/28 09:24:29;;;;;;;10.30;2.47;;;;;;;-144.73;100.00;54547.28;4997654;28;20034;-74
2023/08/28 09:26:55;;;;;;;3.53;1.60;;;;;;;-144.73;100.00;54502.13;5005372;28;20034;-74
2023/08/28 09:29:22;;;;;;;7.28;1.98;;;;;;;-144.73;100.00;54473.38;5003261;28;20026;-74
2023/08/28 09:31:47;;;;;;;4.20;1.80;;;;;;;-144.73;100.00;54485.69;4997779;28;20022;-73
2023/08/28 09:34:13;;;;;;;9.75;1.98;;;;;;;-144.73;100.00;54463.13;5011448;28;20026;-72
2023/08/28 09:36:42;;;;;;;8.80;1.90;;;;;;;-144.73;100.00;54530.84;4994949;28;20021;-73
2023/08/28 09:39:07;;;;;;;6.55;2.00;;;;;;;-144.73;100.00;54452.84;4994795;28;20032;-73
2023/08/28 09:41:49;;;;;;;4.72;1.60;;;;;;;-144.73;100.00;54465.16;5000545;28;20021;-72
2023/08/28 09:44:16;;;;;;;3.97;1.25;;;;;;;-144.73;100.00;54516.47;5002246;28;20033;-72
2023/08/28 09:46:46;;;;;;;12.10;2.13;;;;;;;-144.73;100.00;54493.91;5000839;28;20029;-73
2023/08/28 09:49:13;;;;;;;8.25;1.73;;;;;;;-144.73;100.00;54510.31;5018875;28;20485;-72
2023/08/28 09:51:43;;;;;;;4.78;1.10;;;;;;;-144.73;100.00;54489.81;4998764;28;20350;-72
2023/08/28 09:54:10;;;;;;;5.57;1.50;;;;;;;-144.73;100.00;54508.28;5012247;28;20021;-73
2023/08/28 09:56:37;;;;;;;2.42;1.25;;;;;;;-144.73;100.00;54510.31;4994832;28;20014;-73
2023/08/28 09:59:03;;;;;;;6.63;2.08;;;;;;;-144.73;100.00;54493.91;5012329;28;20037;-73
2023/08/28 10:01:36;;;;;;;5.85;1.50;;;;;;;-144.73;100.00;54506.22;5014061;28;20026;-73
2023/08/28 10:04:05;;;;;;;9.50;1.92;;;;;;;-144.73;100.00;54489.81;4993738;28;20053;-72
2023/08/28 10:06:39;;;;;;;5.93;1.77;;;;;;;-144.73;100.00;54506.22;5007884;28;20048;-72
2023/08/28 10:09:08;;;;;;;4.05;1.23;;;;;;;-144.73;100.00;54473.38;5001118;28;20112;-72
2023/08/28 10:11:39;;;;;;;4.35;1.58;;;;;;;-144.73;100.00;54473.38;4995462;28;20033;-72
2023/08/28 10:14:06;;;;;;;5.63;1.47;;;;;;;-144.73;100.00;54473.38;4997983;28;20028;-73
2023/08/28 10:16:40;;;;;;;5.97;2.45;;;;;;;-144.73;100.00;54493.91;5011657;28;20038;-73
2023/08/28 10:19:25;;;;;;;5.00;1.70;;;;;;;-144.73;100.00;54506.22;4994605;28;20020;-72
2023/08/28 10:21:52;;;;;;;5.50;1.27;;;;;;;-144.73;100.00;54518.53;5010641;28;20554;-74
2023/08/28 10:24:18;;;;;;;6.63;1.30;;;;;;;-144.73;100.00;54493.91;5001053;28;20108;-74
2023/08/28 10:26:46;;;;;;;7.03;1.40;;;;;;;-144.73;100.00;54485.69;4995200;28;20022;-72
2023/08/28 10:29:15;;;;;;;5.57;1.42;;;;;;;-144.73;100.00;54477.47;5017126;28;20026;-74
2023/08/28 10:31:41;;;;;;;3.25;1.30;;;;;;;-144.73;100.00;54452.84;4999179;28;20025;-74
2023/08/28 10:34:08;;;;;;;3.03;1.30;;;;;;;-144.73;100.00;54495.97;5024590;28;20021;-72
2023/08/28 10:36:35;;;;;;;9.68;1.38;;;;;;;-144.73;100.00;54485.69;5003698;28;20135;-73
2023/08/28 10:39:02;;;;;;;4.82;1.75;;;;;;;-144.73;100.00;54473.38;5006296;28;20017;-74
2023/08/28 10:41:29;;;;;;;4.97;1.20;;;;;;;-144.73;100.00;54444.66;5001187;28;20037;-74
2023/08/28 10:43:57;;;;;;;4.22;1.20;;;;;;;-144.73;100.00;54456.97;4994592;28;20041;-74
2023/08/28 10:46:22;;;;;;;4.40;1.27;;;;;;;-144.73;100.00;54473.38;4994348;28;20048;-74
2023/08/28 10:48:55;;;;;;;7.53;1.45;;;;;;;-144.73;91.15;54407.69;4994923;28;20022;-74
2023/08/28 10:51:22;;;;;;;5.47;1.30;;;;;;;-144.73;95.25;54440.53;4995739;28;20039;-74
2023/08/28 10:53:51;;;;;;;3.15;0.93;;;;;;;-144.73;91.67;54461.06;4993150;28;20477;-74
2023/08/28 10:56:16;;;;;;;7.00;1.77;;;;;;;-144.73;95.73;54485.69;4993596;28;20030;-74
2023/08/28 10:58:42;;;;;;;2.78;1.40;;;;;;;-144.73;100.00;54477.47;4994360;28;20014;-72
2023/08/28 11:01:17;;;;;;;2.05;1.05;;;;;;;-144.73;100.00;54456.97;5013227;28;20053;-72